createdAt,value
2017-12-16T00:00:19.365Z,86.77
2017-12-16T00:02:48.668Z,87.43
2017-12-16T00:05:17.764Z,87.32
2017-12-16T00:07:46.873Z,86.75
2017-12-16T00:10:16.004Z,86.78
2017-12-16T00:12:44.343Z,86.58
2017-12-16T00:15:13.622Z,86.89
2017-12-16T00:17:41.973Z,86.94
2017-12-16T00:20:10.392Z,86.64
2017-12-16T00:22:39.470Z,87.04
2017-12-16T00:25:07.841Z,87.19
2017-12-16T00:27:36.168Z,87.42
2017-12-16T00:30:04.508Z,87.30
2017-12-16T00:32:32.856Z,87.29
2017-12-16T00:35:01.186Z,87.43
2017-12-16T00:37:29.516Z,87.27
2017-12-16T00:39:57.874Z,87.35
2017-12-16T00:42:26.257Z,87.13
2017-12-16T00:44:54.556Z,87.09
2017-12-16T00:47:22.914Z,87.39
2017-12-16T00:49:51.223Z,87.22
2017-12-16T00:52:19.634Z,87.20
2017-12-16T00:54:48.009Z,87.10
2017-12-16T00:57:16.411Z,86.96
2017-12-16T00:59:44.724Z,87.34
2017-12-16T01:02:13.076Z,87.12
2017-12-16T01:04:41.435Z,87.42
2017-12-16T01:07:09.757Z,87.44
2017-12-16T01:09:38.118Z,87.89
2017-12-16T01:12:06.531Z,87.88
2017-12-16T01:14:34.888Z,87.72
2017-12-16T01:17:03.225Z,87.38
2017-12-16T01:19:31.557Z,87.12
2017-12-16T01:22:00.692Z,86.70
2017-12-16T01:24:29.137Z,86.92
2017-12-16T01:26:58.264Z,86.92
2017-12-16T01:29:26.642Z,87.13
2017-12-16T01:31:54.976Z,86.95
2017-12-16T01:34:41.180Z,86.71
2017-12-16T01:37:27.190Z,86.87
2017-12-16T01:39:56.469Z,87.49
2017-12-16T01:42:24.797Z,87.49
2017-12-16T01:44:53.132Z,87.22
2017-12-16T01:47:22.244Z,87.77
2017-12-16T01:49:50.565Z,87.45
2017-12-16T01:52:18.909Z,87.94
2017-12-16T01:54:47.304Z,87.82
2017-12-16T01:57:15.645Z,87.24
2017-12-16T01:59:44.769Z,87.20
2017-12-16T02:02:13.080Z,87.11
2017-12-16T02:04:41.556Z,86.92
2017-12-16T02:07:09.942Z,86.86
2017-12-16T02:09:38.285Z,86.70
2017-12-16T02:12:06.599Z,86.42
2017-12-16T02:14:34.953Z,86.88
2017-12-16T02:17:03.292Z,87.07
2017-12-16T02:19:31.655Z,86.70
2017-12-16T02:22:00.828Z,86.57
2017-12-16T02:24:29.152Z,86.52
2017-12-16T02:26:57.554Z,86.27
2017-12-16T02:29:25.941Z,86.15
2017-12-16T02:31:54.327Z,85.83
2017-12-16T02:34:22.647Z,85.91
2017-12-16T02:36:51.769Z,85.66
2017-12-16T02:39:20.108Z,85.20
2017-12-16T02:41:49.213Z,85.71
2017-12-16T02:44:18.300Z,86.05
2017-12-16T02:46:47.388Z,86.43
2017-12-16T02:49:15.749Z,86.38
2017-12-16T02:51:44.070Z,86.69
2017-12-16T02:54:12.385Z,86.43
2017-12-16T02:56:40.719Z,86.30
2017-12-16T02:59:09.894Z,86.29
2017-12-16T03:01:39.091Z,86.19
2017-12-16T03:04:07.461Z,86.13
2017-12-16T03:06:35.768Z,86.16
2017-12-16T03:09:04.880Z,85.90
2017-12-16T03:11:33.244Z,85.56
2017-12-16T03:14:01.620Z,85.78
2017-12-16T03:16:30.180Z,85.68
2017-12-16T03:18:58.524Z,85.80
2017-12-16T03:21:26.856Z,85.72
2017-12-16T03:23:55.229Z,85.71
2017-12-16T03:26:24.345Z,86.10
2017-12-16T03:28:52.780Z,86.13
2017-12-16T03:31:21.109Z,86.32
2017-12-16T03:33:49.447Z,86.45
2017-12-16T03:36:17.832Z,86.46
2017-12-16T03:38:46.912Z,86.50
2017-12-16T03:41:15.240Z,86.16
2017-12-16T03:43:43.567Z,85.68
2017-12-16T03:46:12.690Z,85.67
2017-12-16T03:48:41.020Z,85.72
2017-12-16T03:51:09.580Z,85.70
2017-12-16T03:53:37.919Z,85.20
2017-12-16T03:56:06.280Z,84.98
2017-12-16T03:58:34.605Z,85.19
2017-12-16T04:01:02.951Z,84.95
2017-12-16T04:03:32.055Z,85.25
2017-12-16T04:06:00.412Z,85.26
2017-12-16T04:08:29.523Z,85.09
2017-12-16T04:10:57.831Z,85.22
2017-12-16T04:13:26.156Z,85.61
2017-12-16T04:15:54.497Z,86.18
2017-12-16T04:18:22.828Z,85.96
2017-12-16T04:20:51.932Z,85.96
2017-12-16T04:23:20.281Z,86.41
2017-12-16T04:25:48.605Z,86.08
2017-12-16T04:28:16.943Z,86.11
2017-12-16T04:30:46.170Z,86.07
2017-12-16T04:33:14.496Z,86.38
2017-12-16T04:35:42.863Z,87.43
2017-12-16T04:38:11.184Z,88.15
2017-12-16T04:40:39.512Z,87.90
2017-12-16T04:43:07.888Z,88.10
2017-12-16T04:45:36.212Z,87.99
2017-12-16T04:48:05.305Z,87.61
2017-12-16T04:50:34.431Z,87.89
2017-12-16T04:53:02.769Z,88.25
2017-12-16T04:55:31.860Z,88.27
2017-12-16T04:58:00.981Z,88.11
2017-12-16T05:00:29.316Z,88.23
2017-12-16T05:02:57.704Z,87.87
2017-12-16T05:05:26.061Z,87.53
2017-12-16T05:07:54.382Z,87.74
2017-12-16T05:10:23.556Z,87.75
2017-12-16T05:12:51.959Z,87.76
2017-12-16T05:15:21.092Z,87.73
2017-12-16T05:17:49.413Z,87.88
2017-12-16T05:20:18.524Z,87.92
2017-12-16T05:22:47.639Z,88.16
2017-12-16T05:25:15.960Z,88.10
2017-12-16T05:27:44.367Z,88.08
2017-12-16T05:30:13.448Z,88.00
2017-12-16T05:32:42.535Z,88.16
2017-12-16T05:35:10.886Z,88.28
2017-12-16T05:37:39.203Z,88.39
2017-12-16T05:40:08.300Z,88.75
2017-12-16T05:42:37.414Z,89.14
2017-12-16T05:45:05.747Z,89.43
2017-12-16T05:47:34.094Z,89.60
2017-12-16T05:50:02.539Z,89.20
2017-12-16T05:52:31.730Z,88.86
2017-12-16T05:55:00.815Z,89.01
2017-12-16T05:57:29.171Z,89.44
2017-12-16T05:59:57.596Z,89.92
2017-12-16T06:02:26.680Z,90.18
2017-12-16T06:04:55.792Z,90.43
2017-12-16T06:07:24.139Z,91.06
2017-12-16T06:09:52.557Z,91.15
2017-12-16T06:12:20.952Z,91.55
2017-12-16T06:14:49.282Z,91.48
2017-12-16T06:17:18.420Z,91.56
2017-12-16T06:19:46.767Z,91.71
2017-12-16T06:22:15.864Z,91.86
2017-12-16T06:24:44.344Z,91.88
2017-12-16T06:27:13.517Z,91.84
2017-12-16T06:29:42.616Z,91.33
2017-12-16T06:32:10.948Z,90.53
2017-12-16T06:34:39.345Z,90.06
2017-12-16T06:37:07.663Z,89.81
2017-12-16T06:39:35.988Z,89.34
2017-12-16T06:42:04.352Z,88.80
2017-12-16T06:44:32.677Z,88.42
2017-12-16T06:47:01.028Z,87.62
2017-12-16T06:49:29.385Z,87.49
2017-12-16T06:51:57.716Z,87.06
2017-12-16T06:54:26.816Z,87.17
2017-12-16T06:56:55.932Z,87.58
2017-12-16T06:59:24.252Z,87.98
2017-12-16T07:01:52.586Z,88.17
2017-12-16T07:04:20.946Z,88.34
2017-12-16T07:06:50.034Z,88.59
2017-12-16T07:09:19.156Z,88.54
2017-12-16T07:11:47.523Z,88.73
2017-12-16T07:14:16.620Z,89.69
2017-12-16T07:16:45.738Z,90.54
2017-12-16T07:19:14.095Z,90.58
2017-12-16T07:21:42.455Z,90.88
2017-12-16T07:24:10.773Z,91.01
2017-12-16T07:26:39.109Z,91.11
2017-12-16T07:29:07.440Z,91.32
2017-12-16T07:31:35.816Z,91.48
2017-12-16T07:34:04.140Z,91.42
2017-12-16T07:36:33.247Z,91.37
2017-12-16T07:39:02.363Z,91.28
2017-12-16T07:41:30.704Z,91.14
2017-12-16T07:43:59.036Z,90.90
2017-12-16T07:46:27.467Z,90.85
2017-12-16T07:48:56.565Z,90.61
2017-12-16T07:51:25.746Z,90.33
2017-12-16T07:53:54.101Z,89.81
2017-12-16T07:56:22.431Z,88.78
2017-12-16T07:58:50.755Z,88.56
2017-12-16T08:01:19.120Z,87.75
2017-12-16T08:03:47.435Z,87.39
2017-12-16T08:06:15.771Z,86.57
2017-12-16T08:08:44.154Z,86.42
2017-12-16T08:11:13.292Z,86.00
2017-12-16T08:13:41.685Z,86.33
2017-12-16T08:16:10.846Z,86.36
2017-12-16T08:18:39.176Z,86.70
2017-12-16T08:21:07.540Z,86.34
2017-12-16T08:23:35.865Z,86.33
2017-12-16T08:26:04.255Z,85.64
2017-12-16T08:28:32.655Z,85.91
2017-12-16T08:31:02.328Z,85.36
2017-12-16T08:33:30.747Z,85.54
2017-12-16T08:35:59.071Z,86.27
2017-12-16T08:38:27.396Z,85.63
2017-12-16T08:40:55.735Z,85.41
2017-12-16T08:43:24.057Z,84.92
2017-12-16T08:45:53.157Z,85.03
2017-12-16T08:48:22.326Z,82.54
2017-12-16T08:50:50.645Z,83.60
2017-12-16T08:53:18.968Z,84.17
2017-12-16T08:55:47.346Z,84.44
2017-12-16T08:58:15.685Z,84.40
2017-12-16T09:00:44.008Z,83.96
2017-12-16T09:03:12.396Z,83.91
2017-12-16T09:05:40.724Z,84.31
2017-12-16T09:08:09.212Z,84.65
2017-12-16T09:10:37.616Z,84.90
2017-12-16T09:13:05.953Z,84.95
2017-12-16T09:15:35.445Z,85.01
2017-12-16T09:18:03.815Z,84.52
2017-12-16T09:20:32.911Z,85.02
2017-12-16T09:23:02.263Z,85.84
2017-12-16T09:25:31.461Z,85.37
2017-12-16T09:27:59.783Z,85.75
2017-12-16T09:30:28.906Z,85.65
2017-12-16T09:32:57.408Z,85.55
2017-12-16T09:35:25.727Z,85.25
2017-12-16T09:37:54.059Z,85.17
2017-12-16T09:40:22.432Z,84.71
2017-12-16T09:42:50.869Z,84.47
2017-12-16T09:45:19.972Z,84.37
2017-12-16T09:47:48.299Z,84.40
2017-12-16T09:50:16.665Z,84.55
2017-12-16T09:52:44.977Z,86.24
2017-12-16T09:55:14.076Z,85.22
2017-12-16T09:57:43.954Z,85.24
2017-12-16T10:00:12.311Z,85.67
2017-12-16T10:02:40.878Z,88.32
2017-12-16T10:05:09.294Z,89.74
2017-12-16T10:07:37.625Z,84.92
2017-12-16T10:10:06.709Z,85.27
2017-12-16T10:12:35.815Z,85.59
2017-12-16T10:15:04.915Z,85.46
2017-12-16T10:17:34.019Z,85.98
2017-12-16T10:20:02.376Z,86.54
2017-12-16T10:22:31.488Z,86.70
2017-12-16T10:25:00.595Z,86.86
2017-12-16T10:27:28.928Z,86.30
2017-12-16T10:29:57.277Z,85.96
2017-12-16T10:32:25.620Z,86.59
2017-12-16T10:34:53.937Z,86.18
2017-12-16T10:37:22.298Z,85.89
2017-12-16T10:39:50.675Z,85.96
2017-12-16T10:42:19.040Z,85.23
2017-12-16T10:44:47.481Z,84.51
2017-12-16T10:47:16.648Z,84.66
2017-12-16T10:49:44.998Z,84.22
2017-12-16T10:52:13.345Z,83.18
2017-12-16T10:54:42.456Z,82.94
2017-12-16T10:57:10.806Z,83.90
2017-12-16T10:59:39.934Z,83.82
2017-12-16T11:02:08.268Z,83.31
2017-12-16T11:04:36.841Z,82.71
2017-12-16T11:07:05.228Z,82.63
2017-12-16T11:09:33.651Z,82.86
2017-12-16T11:12:02.063Z,83.73
2017-12-16T11:14:30.423Z,82.98
2017-12-16T11:16:58.757Z,83.02
2017-12-16T11:19:27.895Z,83.24
2017-12-16T11:21:56.224Z,83.77
2017-12-16T11:24:25.315Z,83.87
2017-12-16T11:26:53.676Z,83.38
2017-12-16T11:29:22.017Z,82.85
2017-12-16T11:31:50.352Z,81.81
2017-12-16T11:34:19.456Z,82.39
2017-12-16T11:36:48.557Z,82.49
2017-12-16T11:39:16.926Z,83.01
2017-12-16T11:41:46.020Z,82.77
2017-12-16T11:44:15.140Z,82.50
2017-12-16T11:46:43.616Z,81.48
2017-12-16T11:49:11.959Z,80.50
2017-12-16T11:51:41.053Z,80.65
2017-12-16T11:54:09.428Z,80.97
2017-12-16T11:56:38.537Z,81.50
2017-12-16T11:59:07.648Z,80.37
2017-12-16T12:01:36.753Z,80.66
2017-12-16T12:04:05.118Z,81.02
2017-12-16T12:06:34.233Z,80.79
2017-12-16T12:09:02.588Z,81.18
2017-12-16T12:11:31.692Z,81.38
2017-12-16T12:14:00.851Z,81.50
2017-12-16T12:16:29.259Z,82.22
2017-12-16T12:18:58.344Z,81.91
2017-12-16T12:21:27.513Z,82.03
2017-12-16T12:23:55.883Z,82.13
2017-12-16T12:26:24.215Z,82.38
2017-12-16T12:28:53.319Z,80.97
2017-12-16T12:31:21.689Z,80.87
2017-12-16T12:33:50.013Z,81.49
2017-12-16T12:36:18.394Z,81.20
2017-12-16T12:38:46.721Z,81.45
2017-12-16T12:41:15.103Z,80.87
2017-12-16T12:43:43.465Z,80.76
2017-12-16T12:46:12.560Z,80.62
2017-12-16T12:48:41.692Z,80.00
2017-12-16T12:51:10.048Z,79.78
2017-12-16T12:53:38.405Z,79.97
2017-12-16T12:56:07.503Z,80.38
2017-12-16T12:58:36.614Z,80.38
2017-12-16T13:01:05.740Z,79.88
2017-12-16T13:03:34.072Z,79.71
2017-12-16T13:06:03.192Z,79.85
2017-12-16T13:08:31.511Z,79.47
2017-12-16T13:10:59.832Z,79.31
2017-12-16T13:13:28.197Z,79.52
2017-12-16T13:15:57.307Z,79.06
2017-12-16T13:18:25.645Z,79.66
2017-12-16T13:20:53.984Z,80.16
2017-12-16T13:23:22.304Z,80.60
2017-12-16T13:25:50.666Z,81.46
2017-12-16T13:28:19.021Z,82.40
2017-12-16T13:30:47.365Z,82.44
2017-12-16T13:33:15.861Z,83.10
2017-12-16T13:35:44.197Z,83.39
2017-12-16T13:38:12.521Z,82.72
2017-12-16T13:40:40.885Z,82.57
2017-12-16T13:43:09.254Z,82.45
2017-12-16T13:45:38.381Z,82.53
2017-12-16T13:48:06.736Z,81.98
2017-12-16T13:50:35.491Z,81.90
2017-12-16T13:53:03.864Z,82.47
2017-12-16T13:55:32.256Z,82.28
2017-12-16T13:58:00.944Z,82.43
2017-12-16T14:00:30.113Z,82.37
2017-12-16T14:02:58.542Z,81.88
2017-12-16T14:05:26.900Z,81.22
2017-12-16T14:07:55.427Z,81.18
2017-12-16T14:10:23.864Z,81.44
2017-12-16T14:12:52.993Z,81.49
2017-12-16T14:15:21.817Z,81.82
2017-12-16T14:17:50.200Z,81.85
2017-12-16T14:20:18.578Z,81.92
2017-12-16T14:22:46.945Z,81.93
2017-12-16T14:25:16.712Z,81.99
2017-12-16T14:27:45.114Z,82.25
2017-12-16T14:30:13.436Z,83.23
2017-12-16T14:32:41.821Z,83.89
2017-12-16T14:35:10.939Z,84.13
2017-12-16T14:37:39.260Z,84.18
2017-12-16T14:40:07.640Z,84.98
2017-12-16T14:42:35.984Z,84.90
2017-12-16T14:45:04.312Z,84.95
2017-12-16T14:47:32.685Z,84.81
2017-12-16T14:50:01.016Z,84.47
2017-12-16T14:52:29.361Z,84.73
2017-12-16T14:54:57.733Z,84.93
2017-12-16T14:57:26.061Z,85.13
2017-12-16T14:59:54.389Z,85.11
2017-12-16T15:02:22.797Z,85.49
2017-12-16T15:04:51.136Z,85.62
2017-12-16T15:07:19.470Z,85.66
2017-12-16T15:09:48.641Z,85.54
2017-12-16T15:12:18.489Z,85.47
2017-12-16T15:14:46.819Z,85.43
2017-12-16T15:17:15.928Z,85.66
2017-12-16T15:19:44.268Z,85.64
2017-12-16T15:22:12.644Z,85.50
2017-12-16T15:24:41.009Z,85.62
2017-12-16T15:27:09.338Z,85.76
2017-12-16T15:29:37.715Z,85.91
2017-12-16T15:32:06.072Z,85.99
2017-12-16T15:34:35.180Z,86.22
2017-12-16T15:37:04.480Z,86.19
2017-12-16T15:39:33.597Z,86.06
2017-12-16T15:42:01.928Z,86.15
2017-12-16T15:44:30.276Z,86.21
2017-12-16T15:46:58.648Z,85.95
2017-12-16T15:49:26.985Z,85.76
2017-12-16T15:51:57.035Z,85.10
2017-12-16T15:54:25.408Z,85.04
2017-12-16T15:56:53.792Z,85.18
2017-12-16T15:59:22.296Z,85.16
2017-12-16T16:01:50.724Z,85.32
2017-12-16T16:04:19.114Z,85.57
2017-12-16T16:06:47.511Z,86.14
2017-12-16T16:09:15.860Z,86.63
2017-12-16T16:11:44.257Z,86.48
2017-12-16T16:14:12.754Z,86.53
2017-12-16T16:16:41.095Z,86.52
2017-12-16T16:19:09.433Z,86.74
2017-12-16T16:21:37.782Z,86.86
2017-12-16T16:24:06.118Z,86.45
2017-12-16T16:26:35.371Z,86.16
2017-12-16T16:29:03.762Z,86.46
2017-12-16T16:31:32.090Z,86.68
2017-12-16T16:34:00.410Z,86.84
2017-12-16T16:36:28.803Z,86.65
2017-12-16T16:38:57.165Z,86.69
2017-12-16T16:41:25.516Z,86.13
2017-12-16T16:43:53.867Z,86.47
2017-12-16T16:46:22.239Z,85.73
2017-12-16T16:48:51.339Z,86.24
2017-12-16T16:51:19.757Z,86.74
2017-12-16T16:53:48.089Z,87.04
2017-12-16T16:56:17.175Z,87.09
2017-12-16T16:58:46.315Z,87.15
2017-12-16T17:01:14.640Z,86.76
2017-12-16T17:03:42.987Z,87.03
2017-12-16T17:06:11.396Z,87.64
2017-12-16T17:08:39.735Z,88.16
2017-12-16T17:11:08.072Z,88.54
2017-12-16T17:13:36.445Z,88.55
2017-12-16T17:16:05.539Z,88.58
2017-12-16T17:18:34.697Z,88.39
2017-12-16T17:21:03.052Z,88.22
2017-12-16T17:23:31.384Z,88.08
2017-12-16T17:26:00.475Z,88.09
2017-12-16T17:28:29.601Z,88.03
2017-12-16T17:30:57.927Z,88.09
2017-12-16T17:33:26.245Z,87.90
2017-12-16T17:35:54.604Z,88.08
2017-12-16T17:38:23.733Z,88.00
2017-12-16T17:40:52.067Z,88.09
2017-12-16T17:43:21.191Z,87.81
2017-12-16T17:45:50.294Z,87.69
2017-12-16T17:48:18.677Z,87.46
2017-12-16T17:50:47.020Z,87.39
2017-12-16T17:53:15.359Z,87.38
2017-12-16T17:55:43.788Z,87.53
2017-12-16T17:58:12.896Z,87.87
2017-12-16T18:00:41.250Z,87.76
2017-12-16T18:03:09.655Z,87.59
2017-12-16T18:05:38.764Z,87.81
2017-12-16T18:08:07.103Z,88.06
2017-12-16T18:10:36.204Z,88.18
2017-12-16T18:13:05.347Z,88.36
2017-12-16T18:15:33.709Z,88.38
2017-12-16T18:18:02.048Z,88.17
2017-12-16T18:20:30.382Z,88.28
2017-12-16T18:22:58.768Z,88.37
2017-12-16T18:25:27.116Z,88.28
2017-12-16T18:27:55.450Z,88.29
2017-12-16T18:30:24.587Z,88.26
2017-12-16T18:32:52.946Z,88.29
2017-12-16T18:35:22.068Z,88.38
2017-12-16T18:37:50.498Z,87.86
2017-12-16T18:40:19.667Z,88.09
2017-12-16T18:42:48.007Z,88.25
2017-12-16T18:45:16.385Z,88.15
2017-12-16T18:47:44.708Z,88.19
2017-12-16T18:50:13.068Z,88.22
2017-12-16T18:52:41.418Z,88.29
2017-12-16T18:55:09.792Z,89.02
2017-12-16T18:57:38.124Z,88.47
2017-12-16T19:00:07.244Z,88.50
2017-12-16T19:02:36.341Z,88.42
2017-12-16T19:05:05.527Z,88.25
2017-12-16T19:07:33.892Z,88.12
2017-12-16T19:10:02.310Z,88.34
2017-12-16T19:12:30.749Z,88.34
2017-12-16T19:14:59.074Z,88.50
2017-12-16T19:17:28.039Z,88.84
2017-12-16T19:19:56.476Z,88.82
2017-12-16T19:22:25.587Z,88.78
2017-12-16T19:24:53.924Z,88.53
2017-12-16T19:27:22.300Z,88.34
2017-12-16T19:29:50.652Z,88.18
2017-12-16T19:32:19.760Z,88.12
2017-12-16T19:34:48.896Z,88.34
2017-12-16T19:37:17.226Z,88.12
2017-12-16T19:39:46.324Z,88.25
2017-12-16T19:42:15.445Z,88.15
2017-12-16T19:44:43.792Z,88.10
2017-12-16T19:47:12.917Z,88.42
2017-12-16T19:49:41.555Z,88.49
2017-12-16T19:52:09.892Z,88.40
2017-12-16T19:54:38.228Z,88.31
2017-12-16T19:57:07.371Z,88.35
2017-12-16T19:59:36.457Z,87.99
2017-12-16T20:02:04.788Z,88.14
2017-12-16T20:04:33.922Z,88.59
2017-12-16T20:07:02.262Z,88.57
2017-12-16T20:09:31.362Z,88.27
2017-12-16T20:11:59.733Z,88.53
2017-12-16T20:14:28.862Z,88.49
2017-12-16T20:16:57.180Z,88.62
2017-12-16T20:19:25.556Z,89.08
2017-12-16T20:21:53.885Z,89.21
2017-12-16T20:24:22.209Z,88.75
2017-12-16T20:26:50.564Z,88.81
2017-12-16T20:29:18.900Z,89.05
2017-12-16T20:31:48.013Z,89.47
2017-12-16T20:34:16.354Z,89.61
2017-12-16T20:36:44.765Z,89.77
2017-12-16T20:39:13.162Z,89.34
2017-12-16T20:41:41.547Z,89.02
2017-12-16T20:46:44.566Z,88.25
2017-12-16T20:49:12.923Z,88.30
2017-12-16T20:51:42.159Z,88.44
2017-12-16T20:54:10.585Z,88.95
2017-12-16T20:56:38.932Z,88.90
2017-12-16T20:59:07.285Z,88.97
2017-12-16T21:01:35.763Z,89.28
2017-12-16T21:04:04.139Z,89.25
2017-12-16T21:06:32.473Z,89.23
2017-12-16T21:09:00.841Z,89.22
2017-12-16T21:11:30.300Z,88.96
2017-12-16T21:13:58.759Z,89.09
2017-12-16T21:16:27.140Z,89.12
2017-12-16T21:18:55.493Z,89.05
2017-12-16T21:21:23.846Z,89.11
2017-12-16T21:23:52.997Z,89.36
2017-12-16T21:26:21.353Z,89.89
2017-12-16T21:28:49.711Z,89.77
2017-12-16T21:31:19.113Z,89.99
2017-12-16T21:33:47.459Z,90.10
2017-12-16T21:36:16.575Z,90.21
2017-12-16T21:38:45.772Z,90.11
2017-12-16T21:41:14.186Z,90.16
2017-12-16T21:43:42.564Z,90.14
2017-12-16T21:46:10.970Z,90.21
2017-12-16T21:48:39.357Z,89.88
2017-12-16T21:51:07.779Z,89.67
2017-12-16T21:53:36.866Z,89.43
2017-12-16T21:56:05.980Z,88.85
2017-12-16T21:58:34.319Z,89.09
2017-12-16T22:01:02.656Z,89.54
2017-12-16T22:03:31.026Z,89.15
2017-12-16T22:05:59.359Z,89.48
2017-12-16T22:08:27.754Z,89.45
2017-12-16T22:10:56.885Z,89.31
2017-12-16T22:13:25.230Z,89.42
2017-12-16T22:15:53.595Z,89.38
2017-12-16T22:18:21.962Z,89.63
2017-12-16T22:20:50.293Z,89.63
2017-12-16T22:23:18.611Z,89.45
2017-12-16T22:25:46.974Z,89.23
2017-12-16T22:28:15.338Z,89.22
2017-12-16T22:30:43.678Z,88.71
2017-12-16T22:33:12.155Z,88.79
2017-12-16T22:35:40.511Z,88.38
2017-12-16T22:38:09.728Z,88.41
2017-12-16T22:40:38.048Z,88.54
2017-12-16T22:43:06.507Z,88.63
2017-12-16T22:45:34.927Z,88.52
2017-12-16T22:48:03.261Z,88.93
2017-12-16T22:50:31.742Z,88.01
2017-12-16T22:53:00.116Z,87.41
2017-12-16T22:55:28.450Z,86.76
2017-12-16T22:57:56.772Z,86.26
2017-12-16T23:00:25.136Z,85.76
2017-12-16T23:02:53.506Z,85.32
2017-12-16T23:05:21.808Z,85.14
2017-12-16T23:07:50.208Z,85.25
2017-12-16T23:10:18.560Z,85.06
2017-12-16T23:12:46.896Z,85.04
2017-12-16T23:15:16.051Z,85.50
2017-12-16T23:17:44.461Z,85.71
2017-12-16T23:20:12.791Z,85.95
2017-12-16T23:22:41.163Z,86.20
2017-12-16T23:25:09.479Z,86.17
2017-12-16T23:27:37.812Z,86.08
2017-12-16T23:30:06.184Z,86.17
2017-12-16T23:32:34.552Z,86.68
2017-12-16T23:35:03.675Z,86.76
2017-12-16T23:37:32.061Z,87.01
2017-12-16T23:40:00.435Z,87.20
2017-12-16T23:42:28.813Z,87.14
2017-12-16T23:44:57.213Z,86.75
2017-12-16T23:47:25.567Z,86.64
2017-12-16T23:49:53.892Z,86.57
2017-12-16T23:52:22.273Z,86.71
2017-12-16T23:54:50.617Z,86.96
2017-12-16T23:57:18.958Z,86.75
2017-12-16T23:59:47.306Z,86.78
